Ercan, Cyprus

7:53 AM EEST on July 29, 2016 (GMT +0300)
Ercan | | Change Station

Elev 299 ft 35.15 °N, 33.50 °E | Updated 33 minutes ago

Partly Cloudy
Partly Cloudy
79 °F
Feels Like 79 °F
N
4
Wind Variable Wind from WSW

Today
High -- | Low -- °F
--% Chance of Precip.
Yesterday
High -- | Low -- °F
Precip. -- in
Pressure 29.68 in
Visibility 2.5 miles
Clouds Few 600 ft
Dew Point 73 °F
Humidity 83%
Rainfall 0.00 in
Snow Depth Not available.
5:53 AM 7:51 PM
Waning Crescent, 25% visible
METAR LCEN 290420Z 24003KT 4000 BR FEW006 26/23 Q1005 NOSIG RMK RWY11 00000KT
Pressure 29.68 in
Visibility 2.5 miles
Clouds Few 600 ft
Dew Point 73 °F
Humidity 83%
Rainfall 0.00 in
Snow Depth Not available.
5:53 AM 7:51 PM
Waning Crescent, 25% visible
METAR LCEN 290420Z 24003KT 4000 BR FEW006 26/23 Q1005 NOSIG RMK RWY11 00000KT

10-Day Weather Forecast

×

Almanac

Astronomy

Jul. 29, 2016 Rise Set
Actual Time
Civil Twilight
Nautical Twilight
Astronomical Twilight
Moon
Length of Visible Light
Length of Day
Tomorrow will be .
, % of the Moon is Illuminated

Today's Extremes

Country Highs Country Lows

Community

WunderPhotos

Upload Photos

1,928,294 photos uploaded!

WunderBlog® & News

Nearby

Air Quality

  Air Quality AQ Index Pollutant
Not available.

Snow Depth

Station Depth Elevation

Earthquake Activity

City Distance Mag. Time & Date
Minimum magnitude displayed is 2.5.

Coastal Water Temperatures

Place Temperature

Stations

Nearby Weather Stations

Station Location Temp. Windchill Dew Point Humidity Wind Precip. Elev Updated Type